Time;durP1;ratioP1;P1;durP2;ratioP2;P2;SDS_P1;SDS_P2;PMS_P1;PMS_P2;Temp;Humidity;BMP_temperature;BMP_pressure;BME280_temperature;BME280_humidity;BME280_pressure;Samples;Min_cycle;Max_cycle;Signal;HPM_P1;HPM_P2
2024/01/28 00:02:48;;;;;;;17.10;4.60;;;;;;;;;;103769;1292;544972;-72
2024/01/28 00:06:26;;;;;;;16.80;4.50;;;;;;;;;;103693;1289;544923;-71
2024/01/28 00:09:59;;;;;;;14.30;3.90;;;;;;;;;;103805;1289;545319;-72
2024/01/28 00:13:41;;;;;;;15.00;4.10;;;;;;;;;;103874;1292;545016;-72
2024/01/28 00:17:18;;;;;;;16.00;4.10;;;;;;;;;;103887;1292;545551;-72
2024/01/28 00:20:56;;;;;;;18.20;4.50;;;;;;;;;;103399;1292;544740;-72
2024/01/28 00:24:33;;;;;;;12.10;4.10;;;;;;;;;;103779;1289;545091;-72
2024/01/28 00:28:11;;;;;;;16.40;3.90;;;;;;;;;;103789;1289;544767;-72
2024/01/28 00:31:48;;;;;;;16.00;3.90;;;;;;;;;;104353;1291;545141;-72
2024/01/28 00:35:26;;;;;;;15.50;4.30;;;;;;;;;;103836;1289;544999;-72
2024/01/28 00:39:03;;;;;;;15.20;4.20;;;;;;;;;;103718;1291;545023;-72
2024/01/28 00:42:41;;;;;;;17.20;4.70;;;;;;;;;;103802;1292;545236;-72
2024/01/28 00:46:20;;;;;;;15.90;4.10;;;;;;;;;;103637;1292;545645;-72
2024/01/28 00:49:56;;;;;;;17.60;4.40;;;;;;;;;;103708;1291;545073;-72
2024/01/28 00:53:33;;;;;;;17.10;4.40;;;;;;;;;;103676;1292;545492;-72
2024/01/28 00:57:10;;;;;;;16.40;4.00;;;;;;;;;;103667;1289;545243;-72
2024/01/28 01:00:48;;;;;;;17.20;4.50;;;;;;;;;;103741;1289;544837;-71
2024/01/28 01:04:26;;;;;;;20.00;4.40;;;;;;;;;;103753;1302;545380;-72
2024/01/28 01:08:03;;;;;;;17.30;4.10;;;;;;;;;;103721;1293;545320;-71
2024/01/28 01:11:42;;;;;;;21.50;4.90;;;;;;;;;;103760;1291;544917;-72
2024/01/28 01:15:18;;;;;;;15.40;4.90;;;;;;;;;;103715;1294;544888;-72
2024/01/28 01:18:56;;;;;;;14.40;4.30;;;;;;;;;;103723;1291;545923;-71
2024/01/28 01:22:33;;;;;;;18.00;4.50;;;;;;;;;;103828;1289;544794;-72
2024/01/28 01:26:10;;;;;;;15.80;4.30;;;;;;;;;;103703;1292;545050;-72
2024/01/28 01:29:47;;;;;;;18.60;4.50;;;;;;;;;;103671;1292;544848;-72
2024/01/28 01:33:25;;;;;;;15.00;4.70;;;;;;;;;;103721;1292;545623;-72
2024/01/28 01:36:59;;;;;;;19.60;4.20;;;;;;;;;;103636;1291;544764;-71
2024/01/28 01:40:40;;;;;;;17.10;4.20;;;;;;;;;;103668;1291;544988;-72
2024/01/28 01:44:18;;;;;;;18.90;5.10;;;;;;;;;;103861;1293;544764;-72
2024/01/28 01:47:55;;;;;;;18.90;4.80;;;;;;;;;;103779;1290;545036;-73
2024/01/28 01:51:32;;;;;;;15.70;4.80;;;;;;;;;;103760;1289;545438;-72
2024/01/28 01:55:11;;;;;;;16.50;4.20;;;;;;;;;;103721;1289;544838;-71
2024/01/28 01:58:47;;;;;;;18.90;5.10;;;;;;;;;;103901;1290;545052;-71
2024/01/28 02:02:26;;;;;;;17.00;4.90;;;;;;;;;;103683;1291;545906;-72
2024/01/28 02:06:03;;;;;;;17.50;4.40;;;;;;;;;;103454;1294;545433;-71
2024/01/28 02:09:40;;;;;;;18.90;4.80;;;;;;;;;;103883;1288;545772;-72
2024/01/28 02:13:17;;;;;;;16.70;4.40;;;;;;;;;;103779;1288;544998;-72
2024/01/28 02:16:55;;;;;;;17.80;4.00;;;;;;;;;;103741;1289;544886;-72
2024/01/28 02:20:32;;;;;;;20.10;5.00;;;;;;;;;;103760;1289;546614;-71
2024/01/28 02:24:13;;;;;;;20.00;4.70;;;;;;;;;;103753;1292;545440;-71
2024/01/28 02:27:47;;;;;;;24.40;4.70;;;;;;;;;;103676;1292;544771;-72
2024/01/28 02:31:25;;;;;;;16.60;3.90;;;;;;;;;;103610;1292;544730;-71
2024/01/28 02:35:02;;;;;;;19.70;4.80;;;;;;;;;;103891;1289;545003;-72
2024/01/28 02:38:36;;;;;;;21.30;5.10;;;;;;;;;;103910;1289;545514;-72
2024/01/28 02:42:17;;;;;;;18.30;4.80;;;;;;;;;;103753;1289;545415;-72
2024/01/28 02:45:54;;;;;;;17.80;4.20;;;;;;;;;;103719;1289;544811;-72
2024/01/28 02:49:32;;;;;;;20.20;5.30;;;;;;;;;;103748;1291;544972;-72
2024/01/28 02:53:09;;;;;;;17.10;4.60;;;;;;;;;;103734;1292;544800;-72
2024/01/28 02:56:47;;;;;;;21.60;5.00;;;;;;;;;;103835;1292;545003;-73
2024/01/28 03:00:24;;;;;;;19.20;4.70;;;;;;;;;;103599;1291;544812;-72
2024/01/28 03:04:02;;;;;;;18.50;4.70;;;;;;;;;;103685;1303;545359;-71
2024/01/28 03:07:40;;;;;;;19.80;5.50;;;;;;;;;;103799;1292;544789;-72
2024/01/28 03:11:17;;;;;;;24.50;6.00;;;;;;;;;;103661;1288;545009;-71
2024/01/28 03:14:54;;;;;;;18.10;5.10;;;;;;;;;;103636;1295;545045;-71
2024/01/28 03:18:32;;;;;;;19.10;4.80;;;;;;;;;;103806;1289;545478;-71
2024/01/28 03:22:09;;;;;;;17.40;5.00;;;;;;;;;;103432;1294;544942;-72
2024/01/28 03:25:47;;;;;;;17.20;4.60;;;;;;;;;;103641;1295;545451;-72
2024/01/28 03:29:24;;;;;;;15.40;4.30;;;;;;;;;;103786;1292;545607;-72
2024/01/28 03:33:01;;;;;;;19.90;4.10;;;;;;;;;;104497;1286;545403;-72
2024/01/28 03:36:39;;;;;;;15.60;3.90;;;;;;;;;;103705;1295;545396;-71
2024/01/28 03:40:13;;;;;;;17.80;4.00;;;;;;;;;;103735;1291;545497;-71
2024/01/28 03:43:54;;;;;;;15.80;4.00;;;;;;;;;;103577;1293;544943;-72
2024/01/28 03:47:28;;;;;;;17.00;4.10;;;;;;;;;;103772;1289;544632;-71
2024/01/28 03:51:09;;;;;;;17.40;4.30;;;;;;;;;;103568;1291;545118;-72
2024/01/28 03:54:46;;;;;;;23.60;4.20;;;;;;;;;;103741;1292;544709;-72
2024/01/28 03:58:24;;;;;;;17.70;3.80;;;;;;;;;;103644;1291;545129;-72
2024/01/28 04:02:01;;;;;;;14.10;4.00;;;;;;;;;;103698;1289;544931;-72
2024/01/28 04:05:39;;;;;;;16.20;3.60;;;;;;;;;;103698;1289;545535;-71
2024/01/28 04:09:16;;;;;;;16.80;4.00;;;;;;;;;;103718;1291;544876;-71
2024/01/28 04:12:54;;;;;;;17.10;3.80;;;;;;;;;;103683;1288;544984;-72
2024/01/28 04:16:32;;;;;;;20.20;4.40;;;;;;;;;;104215;1285;544816;-72
2024/01/28 04:20:08;;;;;;;20.90;3.90;;;;;;;;;;103919;1289;544980;-72
2024/01/28 04:23:48;;;;;;;16.90;3.80;;;;;;;;;;103786;1293;545614;-72
2024/01/28 04:27:24;;;;;;;18.80;3.90;;;;;;;;;;103799;1289;545013;-72
2024/01/28 04:31:02;;;;;;;18.30;4.30;;;;;;;;;;103745;1292;544755;-71
2024/01/28 04:34:39;;;;;;;17.90;3.90;;;;;;;;;;103594;1289;545971;-72
2024/01/28 04:38:16;;;;;;;21.00;3.70;;;;;;;;;;103668;1289;545677;-72
2024/01/28 04:41:53;;;;;;;17.20;4.50;;;;;;;;;;103505;1293;545570;-72
2024/01/28 04:45:30;;;;;;;16.60;3.70;;;;;;;;;;103766;1292;545042;-72
2024/01/28 04:49:08;;;;;;;15.10;3.60;;;;;;;;;;103571;1291;545571;-72
2024/01/28 04:52:45;;;;;;;17.10;3.70;;;;;;;;;;103890;1292;544914;-72
2024/01/28 04:56:23;;;;;;;12.50;3.40;;;;;;;;;;103678;1291;545721;-71
2024/01/28 05:00:01;;;;;;;17.00;3.80;;;;;;;;;;103710;1292;545583;-71
2024/01/28 05:03:38;;;;;;;14.00;3.60;;;;;;;;;;103604;1295;544933;-71
2024/01/28 05:07:16;;;;;;;13.80;3.50;;;;;;;;;;103782;1289;545275;-71
2024/01/28 05:10:53;;;;;;;16.30;4.00;;;;;;;;;;103660;1289;545356;-72
2024/01/28 05:14:30;;;;;;;19.10;3.50;;;;;;;;;;103730;1295;546163;-71
2024/01/28 05:18:08;;;;;;;19.20;3.90;;;;;;;;;;103718;1289;545380;-72
2024/01/28 05:21:42;;;;;;;15.90;3.90;;;;;;;;;;104570;1282;545014;-71
2024/01/28 05:25:23;;;;;;;15.80;3.30;;;;;;;;;;103661;1296;545127;-71
2024/01/28 05:29:05;;;;;;;15.20;3.60;;;;;;;;;;103205;1295;544869;-72
2024/01/28 05:32:39;;;;;;;16.60;3.80;;;;;;;;;;103670;1290;545247;-72
2024/01/28 05:36:15;;;;;;;17.60;4.30;;;;;;;;;;103770;1292;545406;-72
2024/01/28 05:39:53;;;;;;;18.00;4.50;;;;;;;;;;103895;1288;544776;-72
2024/01/28 05:43:30;;;;;;;19.30;4.40;;;;;;;;;;103736;1295;544823;-72
2024/01/28 05:47:08;;;;;;;14.00;3.90;;;;;;;;;;103689;1291;544786;-71
2024/01/28 05:50:46;;;;;;;17.70;3.90;;;;;;;;;;103775;1289;544959;-73
2024/01/28 05:54:23;;;;;;;15.50;3.90;;;;;;;;;;103593;1303;544796;-72
2024/01/28 05:57:59;;;;;;;23.30;5.80;;;;;;;;;;103826;1289;544869;-72
2024/01/28 06:01:37;;;;;;;66.30;19.40;;;;;;;;;;103691;1292;545214;-72
2024/01/28 06:05:15;;;;;;;82.20;25.80;;;;;;;;;;103896;1292;545439;-72
2024/01/28 06:08:53;;;;;;;75.60;24.70;;;;;;;;;;103716;1289;544963;-71
2024/01/28 06:12:31;;;;;;;70.40;23.90;;;;;;;;;;103628;1292;544779;-72
2024/01/28 06:16:08;;;;;;;64.10;23.00;;;;;;;;;;103774;1289;545033;-72
2024/01/28 06:19:44;;;;;;;61.00;21.30;;;;;;;;;;103776;1288;544954;-71
2024/01/28 06:23:23;;;;;;;57.00;19.60;;;;;;;;;;103737;1291;545116;-72
2024/01/28 06:27:00;;;;;;;47.40;18.40;;;;;;;;;;103794;1292;544848;-71
2024/01/28 06:30:37;;;;;;;44.40;17.60;;;;;;;;;;103599;1292;544807;-72
2024/01/28 06:34:15;;;;;;;42.20;17.80;;;;;;;;;;103856;1288;545000;-72
2024/01/28 06:37:52;;;;;;;41.80;19.00;;;;;;;;;;103659;1289;545044;-72
2024/01/28 06:41:29;;;;;;;42.10;18.30;;;;;;;;;;103714;1291;545999;-71
2024/01/28 06:45:10;;;;;;;41.60;17.60;;;;;;;;;;103600;1294;545072;-72
2024/01/28 06:48:44;;;;;;;36.90;16.10;;;;;;;;;;103807;1293;544904;-72
2024/01/28 06:52:22;;;;;;;36.70;16.30;;;;;;;;;;103653;1291;544816;-72
2024/01/28 06:55:59;;;;;;;41.40;17.00;;;;;;;;;;103647;1294;545037;-71
2024/01/28 06:59:37;;;;;;;40.10;19.80;;;;;;;;;;103732;1291;545331;-72
2024/01/28 07:03:14;;;;;;;53.40;23.80;;;;;;;;;;103631;1291;545615;-72
2024/01/28 07:06:48;;;;;;;44.70;19.00;;;;;;;;;;104353;1282;545682;-71
2024/01/28 07:10:29;;;;;;;45.40;17.10;;;;;;;;;;103792;1290;545661;-70
2024/01/28 07:14:07;;;;;;;37.40;15.10;;;;;;;;;;103637;1290;546000;-72
2024/01/28 07:17:40;;;;;;;37.70;17.20;;;;;;;;;;103768;1289;544786;-71
2024/01/28 07:21:27;;;;;;;39.40;17.20;;;;;;;;;;103616;1292;546167;-72
2024/01/28 07:24:59;;;;;;;37.00;17.00;;;;;;;;;;103801;1294;545333;-71
2024/01/28 07:28:37;;;;;;;32.50;14.30;;;;;;;;;;103821;1291;545041;-71
2024/01/28 07:32:14;;;;;;;30.30;13.80;;;;;;;;;;103531;1289;545770;-70
2024/01/28 07:35:52;;;;;;;30.80;14.20;;;;;;;;;;103761;1292;545071;-72
2024/01/28 07:39:28;;;;;;;33.70;15.40;;;;;;;;;;103756;1289;545620;-72
2024/01/28 07:43:07;;;;;;;34.50;16.50;;;;;;;;;;103689;1290;545129;-71
2024/01/28 07:46:44;;;;;;;35.50;16.70;;;;;;;;;;103742;1295;545039;-71
2024/01/28 07:50:22;;;;;;;36.10;15.90;;;;;;;;;;103691;1291;544698;-71
2024/01/28 07:53:59;;;;;;;39.10;17.50;;;;;;;;;;103772;1292;545541;-71
2024/01/28 07:57:37;;;;;;;30.40;13.90;;;;;;;;;;104629;1291;545036;-71
2024/01/28 08:01:14;;;;;;;36.20;14.00;;;;;;;;;;103705;1292;545066;-71
2024/01/28 08:04:52;;;;;;;35.10;14.80;;;;;;;;;;103689;1291;544934;-71
2024/01/28 08:08:30;;;;;;;29.90;11.70;;;;;;;;;;103833;1289;545499;-72
2024/01/28 08:12:13;;;;;;;30.00;13.00;;;;;;;;;;103431;1292;548337;-72
2024/01/28 08:15:44;;;;;;;25.80;11.70;;;;;;;;;;103784;1302;545007;-72
2024/01/28 08:19:21;;;;;;;24.90;12.90;;;;;;;;;;103696;1289;545773;-71
2024/01/28 08:22:59;;;;;;;22.30;10.70;;;;;;;;;;104256;1287;544969;-72
2024/01/28 08:26:36;;;;;;;21.10;8.40;;;;;;;;;;104086;1291;544734;-72
2024/01/28 08:30:15;;;;;;;18.40;7.60;;;;;;;;;;103780;1289;544808;-72
2024/01/28 08:33:51;;;;;;;21.70;9.20;;;;;;;;;;103694;1289;545000;-71
2024/01/28 08:37:29;;;;;;;18.40;7.60;;;;;;;;;;103760;1292;545327;-71
2024/01/28 08:41:07;;;;;;;20.20;8.50;;;;;;;;;;103587;1291;545518;-71
2024/01/28 08:44:43;;;;;;;21.10;7.80;;;;;;;;;;103666;1290;546013;-71
2024/01/28 08:48:21;;;;;;;17.90;7.20;;;;;;;;;;103661;1289;545064;-71
2024/01/28 08:51:58;;;;;;;14.90;7.40;;;;;;;;;;103689;1291;545736;-72
2024/01/28 08:55:32;;;;;;;21.50;10.30;;;;;;;;;;103762;1299;545263;-71
2024/01/28 08:59:13;;;;;;;19.30;7.00;;;;;;;;;;104469;1283;545545;-71
2024/01/28 09:02:47;;;;;;;16.30;5.30;;;;;;;;;;103844;1289;545480;-72
2024/01/28 09:06:28;;;;;;;13.70;4.70;;;;;;;;;;103729;1289;544969;-72
2024/01/28 09:10:06;;;;;;;14.80;4.60;;;;;;;;;;103607;1291;544600;-71
2024/01/28 09:13:43;;;;;;;18.70;5.80;;;;;;;;;;103806;1293;546097;-72
2024/01/28 09:17:20;;;;;;;16.00;5.90;;;;;;;;;;103706;1292;546827;-71
2024/01/28 09:20:59;;;;;;;15.70;5.60;;;;;;;;;;103627;1290;545470;-72
2024/01/28 09:24:32;;;;;;;12.80;4.90;;;;;;;;;;103975;1292;545391;-70
2024/01/28 09:28:13;;;;;;;28.50;13.10;;;;;;;;;;103683;1289;545584;-72
2024/01/28 09:31:51;;;;;;;26.70;8.90;;;;;;;;;;103704;1292;545402;-71
2024/01/28 09:35:28;;;;;;;19.70;6.90;;;;;;;;;;103643;1302;545538;-72
2024/01/28 09:39:05;;;;;;;16.50;5.30;;;;;;;;;;103770;1289;544948;-72
2024/01/28 09:42:52;;;;;;;14.50;4.80;;;;;;;;;;103777;1289;545037;-69
2024/01/28 09:46:20;;;;;;;11.10;3.80;;;;;;;;;;104547;1286;545638;-70
2024/01/28 09:49:59;;;;;;;39.10;17.30;;;;;;;;;;103701;1291;545984;-70
2024/01/28 09:53:36;;;;;;;20.20;7.20;;;;;;;;;;103642;1294;545424;-72
2024/01/28 09:57:14;;;;;;;17.40;5.60;;;;;;;;;;103740;1289;545466;-71
2024/01/28 10:00:50;;;;;;;14.70;5.90;;;;;;;;;;103812;1292;546043;-70
2024/01/28 10:04:23;;;;;;;24.30;9.40;;;;;;;;;;103802;1292;545729;-69
2024/01/28 10:08:05;;;;;;;21.00;8.50;;;;;;;;;;103718;1289;545059;-70
2024/01/28 10:11:42;;;;;;;16.20;5.60;;;;;;;;;;103792;1289;545117;-69
2024/01/28 10:15:26;;;;;;;9.20;2.30;;;;;;;;;;103399;1306;544723;-71
2024/01/28 10:18:53;;;;;;;11.00;3.00;;;;;;;;;;103670;1291;544840;-70
2024/01/28 10:22:35;;;;;;;12.30;2.90;;;;;;;;;;103890;1289;544875;-70
2024/01/28 10:26:12;;;;;;;9.30;2.00;;;;;;;;;;103798;1296;544805;-70
2024/01/28 10:29:49;;;;;;;9.80;2.70;;;;;;;;;;103814;1292;545716;-70
2024/01/28 10:33:27;;;;;;;8.90;2.40;;;;;;;;;;103732;1292;545562;-73
2024/01/28 10:37:06;;;;;;;7.20;2.10;;;;;;;;;;103684;1291;544991;-72
2024/01/28 10:40:44;;;;;;;8.70;2.00;;;;;;;;;;103601;1291;544901;-70
2024/01/28 10:44:21;;;;;;;9.00;1.90;;;;;;;;;;103596;1295;544936;-72
2024/01/28 10:48:02;;;;;;;9.10;2.50;;;;;;;;;;103698;1295;544908;-70
2024/01/28 10:51:35;;;;;;;9.00;3.00;;;;;;;;;;103866;1288;545009;-70
2024/01/28 10:55:12;;;;;;;10.10;3.10;;;;;;;;;;104035;1293;545676;-70
2024/01/28 10:58:50;;;;;;;7.90;2.30;;;;;;;;;;103933;1289;545309;-70
2024/01/28 11:02:28;;;;;;;12.50;4.90;;;;;;;;;;103693;1291;545005;-70
2024/01/28 11:06:04;;;;;;;11.60;4.60;;;;;;;;;;103783;1293;544712;-69
2024/01/28 11:09:43;;;;;;;14.70;5.30;;;;;;;;;;104345;1289;547105;-69
2024/01/28 11:13:20;;;;;;;14.40;5.50;;;;;;;;;;103683;1291;545503;-71
2024/01/28 11:16:57;;;;;;;12.70;4.00;;;;;;;;;;103678;1289;545627;-70
2024/01/28 11:20:32;;;;;;;13.40;4.20;;;;;;;;;;103845;1291;544930;-71
2024/01/28 11:24:14;;;;;;;11.80;4.00;;;;;;;;;;103614;1292;544935;-71
2024/01/28 11:27:50;;;;;;;11.30;3.90;;;;;;;;;;103633;1289;545278;-71
2024/01/28 11:31:33;;;;;;;13.10;4.00;;;;;;;;;;103812;1289;544861;-70
2024/01/28 11:35:04;;;;;;;12.10;3.90;;;;;;;;;;103780;1292;545511;-69
2024/01/28 11:38:43;;;;;;;10.10;3.80;;;;;;;;;;103698;1290;545545;-73
2024/01/28 11:42:19;;;;;;;11.20;4.20;;;;;;;;;;105647;1292;544761;-71
2024/01/28 11:45:52;;;;;;;14.00;4.80;;;;;;;;;;103849;1289;544799;-69
2024/01/28 11:49:30;;;;;;;11.40;4.70;;;;;;;;;;103840;1289;544903;-70
2024/01/28 11:53:10;;;;;;;12.90;4.60;;;;;;;;;;103746;1295;545236;-71
2024/01/28 11:56:45;;;;;;;11.20;4.80;;;;;;;;;;103825;1289;544757;-70
2024/01/28 12:00:26;;;;;;;13.60;5.40;;;;;;;;;;103780;1289;545034;-70
2024/01/28 12:04:04;;;;;;;14.90;5.40;;;;;;;;;;103923;1288;545153;-70
2024/01/28 12:07:41;;;;;;;15.70;5.70;;;;;;;;;;104085;1286;544791;-71
2024/01/28 12:11:24;;;;;;;14.90;6.60;;;;;;;;;;103787;1291;544923;-70
2024/01/28 12:14:59;;;;;;;17.60;5.80;;;;;;;;;;103695;1292;546463;-71
2024/01/28 12:18:38;;;;;;;13.20;6.30;;;;;;;;;;104147;1287;545009;-70
2024/01/28 12:22:14;;;;;;;17.10;7.40;;;;;;;;;;103793;1291;544933;-71
2024/01/28 12:25:49;;;;;;;13.70;5.20;;;;;;;;;;103647;1292;544758;-70
2024/01/28 12:29:26;;;;;;;14.50;5.90;;;;;;;;;;103875;1289;545044;-71
2024/01/28 12:33:01;;;;;;;12.90;5.90;;;;;;;;;;103855;1288;544829;-71
2024/01/28 12:36:41;;;;;;;16.30;6.70;;;;;;;;;;103651;1291;544999;-70
2024/01/28 12:40:19;;;;;;;14.10;6.60;;;;;;;;;;103565;1292;545080;-70
2024/01/28 12:43:56;;;;;;;13.90;5.40;;;;;;;;;;103312;1295;544757;-70
2024/01/28 12:47:36;;;;;;;10.80;4.80;;;;;;;;;;103663;1291;544854;-72
2024/01/28 12:51:11;;;;;;;12.60;5.00;;;;;;;;;;103717;1295;545098;-71
2024/01/28 12:54:49;;;;;;;11.50;3.80;;;;;;;;;;103610;1295;546316;-70
2024/01/28 12:58:26;;;;;;;10.20;3.50;;;;;;;;;;103669;1293;545921;-72
2024/01/28 13:02:04;;;;;;;10.40;4.00;;;;;;;;;;103542;1291;544861;-70
2024/01/28 13:05:40;;;;;;;10.30;3.80;;;;;;;;;;103868;1296;544881;-72
2024/01/28 13:09:19;;;;;;;12.10;4.90;;;;;;;;;;103652;1289;544927;-69
2024/01/28 13:12:56;;;;;;;12.50;5.60;;;;;;;;;;103716;1292;545198;-72
2024/01/28 13:16:33;;;;;;;12.30;5.40;;;;;;;;;;103757;1289;545667;-71
2024/01/28 13:20:11;;;;;;;12.80;5.80;;;;;;;;;;103761;1295;544878;-72
2024/01/28 13:23:48;;;;;;;13.20;5.30;;;;;;;;;;103635;1292;544955;-70
2024/01/28 13:27:25;;;;;;;17.90;6.70;;;;;;;;;;103687;1292;546188;-72
2024/01/28 13:31:03;;;;;;;14.10;5.70;;;;;;;;;;103664;1291;545049;-71
2024/01/28 13:34:40;;;;;;;13.50;5.50;;;;;;;;;;103608;1291;544946;-71
2024/01/28 13:38:18;;;;;;;14.10;5.50;;;;;;;;;;103670;1289;545083;-71
2024/01/28 13:41:55;;;;;;;14.70;5.60;;;;;;;;;;103754;1289;544693;-71
2024/01/28 13:45:32;;;;;;;15.30;6.40;;;;;;;;;;103670;1291;545020;-71
2024/01/28 13:49:10;;;;;;;14.80;5.70;;;;;;;;;;103684;1289;545526;-70
2024/01/28 13:52:47;;;;;;;30.30;14.50;;;;;;;;;;103672;1291;545022;-72
2024/01/28 13:56:21;;;;;;;25.10;11.20;;;;;;;;;;103836;1288;544938;-71
2024/01/28 14:00:05;;;;;;;12.70;5.80;;;;;;;;;;103727;1295;544993;-71
2024/01/28 14:03:39;;;;;;;12.00;5.20;;;;;;;;;;103669;1293;544905;-72
2024/01/28 14:07:18;;;;;;;16.40;7.90;;;;;;;;;;103657;1291;544941;-71
2024/01/28 14:10:55;;;;;;;13.80;6.30;;;;;;;;;;103751;1289;544859;-70
2024/01/28 14:14:32;;;;;;;17.30;7.80;;;;;;;;;;104344;1286;546040;-70
2024/01/28 14:18:09;;;;;;;12.70;6.00;;;;;;;;;;103799;1301;545422;-71
2024/01/28 14:21:47;;;;;;;17.10;8.00;;;;;;;;;;103684;1291;544947;-72
2024/01/28 14:25:24;;;;;;;20.70;8.00;;;;;;;;;;103718;1291;544804;-71
2024/01/28 14:29:02;;;;;;;24.00;9.40;;;;;;;;;;103539;1298;545057;-73
2024/01/28 14:32:39;;;;;;;33.80;13.30;;;;;;;;;;103798;1290;545988;-72
2024/01/28 14:36:17;;;;;;;29.40;12.50;;;;;;;;;;103682;1291;544776;-71
2024/01/28 14:39:54;;;;;;;29.10;11.60;;;;;;;;;;103899;1289;544908;-70
2024/01/28 14:43:28;;;;;;;23.30;8.70;;;;;;;;;;103825;1289;544785;-72
2024/01/28 14:47:11;;;;;;;19.90;8.30;;;;;;;;;;103849;1292;546185;-70
2024/01/28 14:50:47;;;;;;;20.90;11.00;;;;;;;;;;103879;1290;544726;-70
2024/01/28 14:54:24;;;;;;;19.60;9.30;;;;;;;;;;103958;1288;544852;-71
2024/01/28 14:58:03;;;;;;;20.70;10.70;;;;;;;;;;103763;1292;545051;-70
2024/01/28 15:01:40;;;;;;;22.10;10.30;;;;;;;;;;104190;1285;545142;-70
2024/01/28 15:05:17;;;;;;;25.20;10.60;;;;;;;;;;103668;1292;545324;-69
2024/01/28 15:08:55;;;;;;;24.70;10.20;;;;;;;;;;103947;1289;545042;-70
2024/01/28 15:12:32;;;;;;;24.90;11.20;;;;;;;;;;103716;1290;544998;-73
2024/01/28 15:16:09;;;;;;;24.40;10.30;;;;;;;;;;103736;1291;545915;-70
2024/01/28 15:19:47;;;;;;;29.60;14.00;;;;;;;;;;103691;1292;546177;-69
2024/01/28 15:23:25;;;;;;;36.30;16.50;;;;;;;;;;103762;1289;545574;-71
2024/01/28 15:27:01;;;;;;;46.30;23.50;;;;;;;;;;103843;1295;544718;-72
2024/01/28 15:30:39;;;;;;;66.40;33.30;;;;;;;;;;103711;1292;545921;-72
2024/01/28 15:34:16;;;;;;;65.90;33.40;;;;;;;;;;103759;1290;544843;-71
2024/01/28 15:37:54;;;;;;;64.30;32.10;;;;;;;;;;103859;1292;545640;-72
2024/01/28 15:41:31;;;;;;;65.60;34.20;;;;;;;;;;104143;1286;544890;-71
2024/01/28 15:45:09;;;;;;;49.80;27.40;;;;;;;;;;103829;1288;545183;-72
2024/01/28 15:48:47;;;;;;;46.30;23.70;;;;;;;;;;103798;1288;545689;-72
2024/01/28 15:52:25;;;;;;;38.10;19.80;;;;;;;;;;103820;1292;545112;-71
2024/01/28 15:56:02;;;;;;;42.40;21.30;;;;;;;;;;103639;1292;545150;-73
2024/01/28 15:59:44;;;;;;;44.10;22.90;;;;;;;;;;103779;1291;545426;-72
2024/01/28 16:03:16;;;;;;;38.90;20.50;;;;;;;;;;103714;1291;544738;-72
2024/01/28 16:06:56;;;;;;;30.00;16.80;;;;;;;;;;103776;1294;545026;-73
2024/01/28 16:10:32;;;;;;;33.80;17.60;;;;;;;;;;103772;1294;545013;-71
2024/01/28 16:14:28;;;;;;;36.60;17.50;;;;;;;;;;103698;1302;547919;-71
2024/01/28 16:17:46;;;;;;;31.50;15.00;;;;;;;;;;103993;1289;545174;-71
2024/01/28 16:21:24;;;;;;;30.10;14.80;;;;;;;;;;103906;1289;544947;-71
2024/01/28 16:25:02;;;;;;;29.50;14.20;;;;;;;;;;103667;1292;545256;-73
2024/01/28 16:28:39;;;;;;;29.20;13.90;;;;;;;;;;103780;1292;545259;-71
2024/01/28 16:32:16;;;;;;;27.00;15.00;;;;;;;;;;104563;1288;545440;-72
2024/01/28 16:35:50;;;;;;;27.70;15.30;;;;;;;;;;103802;1289;545503;-71
2024/01/28 16:39:32;;;;;;;34.80;17.40;;;;;;;;;;103822;1289;544976;-72
2024/01/28 16:43:05;;;;;;;38.90;18.90;;;;;;;;;;103850;1289;544986;-72
2024/01/28 16:46:47;;;;;;;34.10;18.30;;;;;;;;;;103493;1295;544966;-72
2024/01/28 16:50:23;;;;;;;34.60;17.50;;;;;;;;;;103734;1289;546448;-73
2024/01/28 16:54:03;;;;;;;33.00;15.90;;;;;;;;;;103743;1290;545035;-72
2024/01/28 16:57:38;;;;;;;33.50;16.20;;;;;;;;;;103671;1292;545176;-71
2024/01/28 17:01:17;;;;;;;32.40;15.10;;;;;;;;;;103744;1291;545027;-72
2024/01/28 17:04:54;;;;;;;27.80;13.20;;;;;;;;;;103862;1289;544710;-72
2024/01/28 17:08:31;;;;;;;28.10;13.00;;;;;;;;;;103692;1293;545019;-72
2024/01/28 17:12:08;;;;;;;27.80;12.80;;;;;;;;;;103723;1292;545053;-71
2024/01/28 17:15:46;;;;;;;25.00;12.30;;;;;;;;;;103755;1291;545722;-72
2024/01/28 17:19:23;;;;;;;23.60;12.00;;;;;;;;;;103860;1289;545077;-72
2024/01/28 17:23:00;;;;;;;23.50;10.60;;;;;;;;;;103708;1289;544881;-72
2024/01/28 17:26:41;;;;;;;20.90;9.50;;;;;;;;;;103866;1289;544787;-72
2024/01/28 17:30:16;;;;;;;29.30;13.30;;;;;;;;;;104066;1289;544840;-72
2024/01/28 17:33:54;;;;;;;28.30;13.80;;;;;;;;;;103744;1291;544862;-71
2024/01/28 17:37:32;;;;;;;31.60;14.60;;;;;;;;;;104540;1286;545052;-72
2024/01/28 17:41:08;;;;;;;30.50;15.80;;;;;;;;;;103759;1295;544831;-72
2024/01/28 17:44:45;;;;;;;25.00;11.80;;;;;;;;;;103598;1297;546133;-72
2024/01/28 17:48:23;;;;;;;27.20;12.70;;;;;;;;;;103719;1289;545060;-72
2024/01/28 17:52:01;;;;;;;37.70;17.90;;;;;;;;;;103862;1289;545448;-72
2024/01/28 17:55:34;;;;;;;51.90;24.90;;;;;;;;;;103998;1289;546461;-72
2024/01/28 17:59:16;;;;;;;47.20;23.80;;;;;;;;;;103700;1291;544960;-71
2024/01/28 18:02:53;;;;;;;49.60;24.70;;;;;;;;;;103699;1293;544985;-71
2024/01/28 18:06:31;;;;;;;57.60;29.00;;;;;;;;;;103751;1295;545743;-72
2024/01/28 18:10:08;;;;;;;58.80;29.00;;;;;;;;;;103892;1289;544968;-73
2024/01/28 18:13:46;;;;;;;49.30;24.40;;;;;;;;;;103705;1290;544751;-73
2024/01/28 18:17:24;;;;;;;45.50;22.40;;;;;;;;;;103976;1292;545546;-70
2024/01/28 18:21:02;;;;;;;41.70;21.10;;;;;;;;;;103852;1288;545398;-73
2024/01/28 18:24:34;;;;;;;37.90;20.30;;;;;;;;;;103821;1289;544719;-73
2024/01/28 18:28:15;;;;;;;41.90;20.20;;;;;;;;;;103756;1301;544838;-71
2024/01/28 18:31:53;;;;;;;37.00;19.50;;;;;;;;;;103794;1289;545002;-71
2024/01/28 18:35:31;;;;;;;41.60;20.80;;;;;;;;;;103670;1292;544795;-73
2024/01/28 18:39:10;;;;;;;37.60;19.20;;;;;;;;;;103702;1295;545617;-70
2024/01/28 18:42:46;;;;;;;34.20;16.70;;;;;;;;;;103712;1291;545079;-72
2024/01/28 18:46:23;;;;;;;30.60;14.10;;;;;;;;;;103622;1291;544850;-71
2024/01/28 18:50:01;;;;;;;33.80;15.90;;;;;;;;;;103708;1290;545037;-73
2024/01/28 18:53:37;;;;;;;35.50;18.20;;;;;;;;;;103672;1292;544835;-71
2024/01/28 18:57:11;;;;;;;57.90;27.90;;;;;;;;;;103847;1289;545339;-72
2024/01/28 19:00:52;;;;;;;70.90;35.30;;;;;;;;;;103753;1290;545118;-73
2024/01/28 19:04:30;;;;;;;54.10;26.30;;;;;;;;;;103789;1289;545108;-72
2024/01/28 19:08:07;;;;;;;57.00;25.60;;;;;;;;;;103972;1290;544933;-71
2024/01/28 19:11:45;;;;;;;58.00;25.60;;;;;;;;;;104665;1282;544970;-73
2024/01/28 19:15:22;;;;;;;54.80;24.20;;;;;;;;;;103700;1289;544869;-73
2024/01/28 19:18:59;;;;;;;51.60;23.60;;;;;;;;;;103749;1289;545667;-73
2024/01/28 19:22:37;;;;;;;47.20;22.00;;;;;;;;;;103704;1290;544817;-71
2024/01/28 19:26:11;;;;;;;39.20;18.90;;;;;;;;;;103887;1294;545630;-71
2024/01/28 19:29:52;;;;;;;38.40;16.40;;;;;;;;;;103994;1289;546040;-71
2024/01/28 19:33:29;;;;;;;30.30;13.90;;;;;;;;;;103741;1289;544882;-70
2024/01/28 19:37:06;;;;;;;30.00;13.00;;;;;;;;;;103865;1292;545736;-72
2024/01/28 19:40:41;;;;;;;28.90;12.50;;;;;;;;;;104238;1285;546221;-70
2024/01/28 19:44:18;;;;;;;24.80;11.30;;;;;;;;;;104502;1283;545983;-74
2024/01/28 19:47:56;;;;;;;21.40;10.40;;;;;;;;;;103945;1289;544761;-73
2024/01/28 19:51:36;;;;;;;23.50;11.10;;;;;;;;;;103826;1290;545652;-70
2024/01/28 19:55:10;;;;;;;32.20;13.80;;;;;;;;;;103827;1289;545392;-71
2024/01/28 19:58:53;;;;;;;64.20;26.70;;;;;;;;;;103680;1291;545021;-71
2024/01/28 20:02:30;;;;;;;57.50;26.20;;;;;;;;;;103882;1289;544798;-70
2024/01/28 20:06:02;;;;;;;57.00;28.30;;;;;;;;;;104106;1291;544998;-72
2024/01/28 20:09:44;;;;;;;80.00;38.30;;;;;;;;;;103729;1289;545670;-71
2024/01/28 20:13:21;;;;;;;82.90;42.10;;;;;;;;;;103685;1292;544843;-71
2024/01/28 20:16:59;;;;;;;85.50;39.30;;;;;;;;;;103744;1295;544722;-72
2024/01/28 20:20:32;;;;;;;87.20;37.00;;;;;;;;;;103741;1288;545117;-70
2024/01/28 20:24:13;;;;;;;76.40;34.60;;;;;;;;;;103715;1291;545729;-70
2024/01/28 20:27:51;;;;;;;71.20;32.70;;;;;;;;;;103725;1290;545057;-73
2024/01/28 20:31:28;;;;;;;67.60;31.70;;;;;;;;;;103925;1289;545294;-73
2024/01/28 20:35:10;;;;;;;84.30;35.30;;;;;;;;;;103815;1292;545578;-71
2024/01/28 20:38:39;;;;;;;87.00;37.10;;;;;;;;;;103860;1288;545579;-71